createdAt,value
2022-10-14T00:01:21.554Z,100195.88
2022-10-14T00:03:59.799Z,100191.12
2022-10-14T00:06:38.826Z,100184.19
2022-10-14T00:09:17.036Z,100180.31
2022-10-14T00:11:55.262Z,100188.53
2022-10-14T00:14:34.040Z,100184.19
2022-10-14T00:17:11.150Z,100180.22
2022-10-14T00:19:51.274Z,100182.59
2022-10-14T00:22:29.911Z,100191.78
2022-10-14T00:25:08.878Z,100188.12
2022-10-14T00:27:47.922Z,100192.69
2022-10-14T00:30:25.989Z,100181.91
2022-10-14T00:33:06.369Z,100178.59
2022-10-14T00:35:44.853Z,100178.19
2022-10-14T00:38:24.141Z,100174.03
2022-10-14T00:41:02.176Z,100179.16
2022-10-14T00:43:59.734Z,100174.84
2022-10-14T00:46:38.668Z,100177.09
2022-10-14T00:49:20.883Z,100179.06
2022-10-14T00:52:03.719Z,100171.09
2022-10-14T00:54:45.657Z,100167.72
2022-10-14T00:57:23.373Z,100167.84
2022-10-14T01:00:04.314Z,100161.38
2022-10-14T01:02:49.048Z,100166.19
2022-10-14T01:05:32.348Z,100164.19
2022-10-14T01:08:13.312Z,100160.34
2022-10-14T01:10:55.596Z,100160.31
2022-10-14T01:13:42.710Z,100159.84
2022-10-14T01:16:26.266Z,100167.62
2022-10-14T01:19:23.222Z,100166.13
2022-10-14T01:22:22.543Z,100162.72
2022-10-14T01:25:09.377Z,100153.91
2022-10-14T01:27:52.987Z,100164.19
2022-10-14T01:30:32.088Z,100151.66
2022-10-14T01:33:14.818Z,100154.00
2022-10-14T01:35:57.184Z,100149.44
2022-10-14T01:38:56.146Z,100145.19
2022-10-14T01:41:36.147Z,100148.53
2022-10-14T01:44:16.153Z,100147.69
2022-10-14T01:46:56.309Z,100149.84
2022-10-14T01:49:38.958Z,100149.63
2022-10-14T01:52:23.222Z,100142.22
2022-10-14T01:55:02.882Z,100142.84
2022-10-14T01:57:41.005Z,100143.75
2022-10-14T02:00:18.704Z,100140.88
2022-10-14T02:02:58.766Z,100142.44
2022-10-14T02:05:39.952Z,100144.06
2022-10-14T02:08:32.695Z,100142.47
2022-10-14T02:11:18.426Z,100147.50
2022-10-14T02:14:09.260Z,100143.41
2022-10-14T02:17:20.902Z,100137.00
2022-10-14T02:20:01.849Z,100138.28
2022-10-14T02:22:52.300Z,100140.41
2022-10-14T02:25:32.538Z,100136.69
2022-10-14T02:28:11.753Z,100135.53
2022-10-14T02:30:53.215Z,100135.47
2022-10-14T02:33:34.247Z,100129.41
2022-10-14T02:36:12.911Z,100127.19
2022-10-14T02:38:51.253Z,100137.41
2022-10-14T02:41:30.365Z,100133.16
2022-10-14T02:44:08.748Z,100139.69
2022-10-14T02:46:47.374Z,100127.88
2022-10-14T02:49:26.555Z,100131.38
2022-10-14T02:52:04.901Z,100125.75
2022-10-14T02:54:43.259Z,100123.91
2022-10-14T02:57:20.529Z,100125.50
2022-10-14T02:59:59.186Z,100130.66
2022-10-14T03:02:37.728Z,100120.81
2022-10-14T03:05:16.347Z,100128.50
2022-10-14T03:07:55.249Z,100127.81
2022-10-14T03:10:35.452Z,100129.22
2022-10-14T03:13:14.689Z,100134.91
2022-10-14T03:15:52.685Z,100130.84
2022-10-14T03:18:35.128Z,100133.75
2022-10-14T03:21:15.518Z,100126.38
2022-10-14T03:23:55.037Z,100128.44
2022-10-14T03:26:37.060Z,100132.78
2022-10-14T03:29:15.775Z,100123.53
2022-10-14T03:31:54.558Z,100124.44
2022-10-14T03:34:36.116Z,100115.81
2022-10-14T03:37:14.771Z,100125.97
2022-10-14T03:39:53.606Z,100122.09
2022-10-14T03:42:32.085Z,100122.31
2022-10-14T03:45:10.878Z,100115.59
2022-10-14T03:47:49.544Z,100123.31
2022-10-14T03:50:34.635Z,100116.53
2022-10-14T03:53:13.342Z,100122.56
2022-10-14T03:55:51.749Z,100118.41
2022-10-14T03:58:32.798Z,100111.91
2022-10-14T04:01:10.903Z,100106.47
2022-10-14T04:03:50.992Z,100100.56
2022-10-14T04:06:28.320Z,100105.63
2022-10-14T04:09:06.917Z,100101.06
2022-10-14T04:11:45.775Z,100106.59
2022-10-14T04:14:26.959Z,100102.50
2022-10-14T04:17:04.662Z,100104.25
2022-10-14T04:19:50.029Z,100100.12
2022-10-14T04:22:30.040Z,100098.53
2022-10-14T04:25:08.694Z,100105.22
2022-10-14T04:27:48.141Z,100100.59
2022-10-14T04:30:27.343Z,100089.25
2022-10-14T04:33:09.702Z,100088.06
2022-10-14T04:35:58.035Z,100089.84
2022-10-14T04:38:39.376Z,100099.16
2022-10-14T04:41:18.101Z,100098.28
2022-10-14T04:43:59.870Z,100098.28
2022-10-14T04:46:39.784Z,100100.97
2022-10-14T04:49:17.785Z,100089.97
2022-10-14T04:51:57.680Z,100091.16
2022-10-14T04:54:37.823Z,100102.13
2022-10-14T04:57:18.015Z,100111.09
2022-10-14T04:59:58.809Z,100106.38
2022-10-14T05:02:40.531Z,100100.97
2022-10-14T05:05:19.030Z,100103.59
2022-10-14T05:07:59.253Z,100099.81
2022-10-14T05:10:39.495Z,100098.13
2022-10-14T05:13:18.284Z,100094.59
2022-10-14T05:15:57.341Z,100105.41
2022-10-14T05:18:41.709Z,100101.37
2022-10-14T05:21:22.872Z,100100.91
2022-10-14T05:24:02.518Z,100105.94
2022-10-14T05:26:41.153Z,100112.19
2022-10-14T05:29:19.694Z,100109.31
2022-10-14T05:32:00.062Z,100108.88
2022-10-14T05:34:38.802Z,100109.75
2022-10-14T05:37:17.436Z,100117.63
2022-10-14T05:40:01.061Z,100110.34
2022-10-14T05:42:41.743Z,100113.31
2022-10-14T05:45:22.495Z,100104.38
2022-10-14T05:48:01.862Z,100116.13
2022-10-14T05:50:42.205Z,100116.28
2022-10-14T05:53:22.221Z,100121.22
2022-10-14T05:56:02.044Z,100125.22
2022-10-14T05:58:42.224Z,100128.78
2022-10-14T06:01:24.109Z,100130.84
2022-10-14T06:04:03.225Z,100134.88
2022-10-14T06:06:42.122Z,100134.66
2022-10-14T06:09:24.511Z,100135.19
2022-10-14T06:12:05.692Z,100141.87
2022-10-14T06:14:44.072Z,100138.84
2022-10-14T06:17:22.730Z,100144.28
2022-10-14T06:20:01.442Z,100152.44
2022-10-14T06:22:40.592Z,100149.66
2022-10-14T06:25:22.917Z,100151.09
2022-10-14T06:28:05.944Z,100150.97
2022-10-14T06:30:51.045Z,100152.63
2022-10-14T06:33:38.436Z,100150.47
2022-10-14T06:36:17.925Z,100148.31
2022-10-14T06:38:57.383Z,100153.50
2022-10-14T06:41:36.266Z,100150.56
2022-10-14T06:44:25.696Z,100157.47
2022-10-14T06:47:04.753Z,100154.47
2022-10-14T06:49:45.614Z,100159.97
2022-10-14T06:52:24.194Z,100160.66
2022-10-14T06:55:03.985Z,100161.97
2022-10-14T06:57:45.186Z,100158.22
2022-10-14T07:00:25.458Z,100162.75
2022-10-14T07:03:04.502Z,100152.87
2022-10-14T07:05:44.779Z,100151.97
2022-10-14T07:08:23.006Z,100157.75
2022-10-14T07:11:02.382Z,100153.50
2022-10-14T07:16:28.988Z,100150.72
2022-10-14T07:19:07.710Z,100156.94
2022-10-14T07:21:48.359Z,100153.38
2022-10-14T07:24:26.311Z,100161.12
2022-10-14T07:27:04.768Z,100160.69
2022-10-14T07:29:43.265Z,100154.84
2022-10-14T07:32:22.816Z,100158.53
2022-10-14T07:35:00.685Z,100161.78
2022-10-14T07:37:47.012Z,100150.53
2022-10-14T09:50:55.783Z,100116.59
2022-10-14T09:53:47.740Z,100111.03
2022-10-14T09:56:42.449Z,100114.34
2022-10-14T09:59:28.989Z,100112.56
2022-10-14T10:02:25.321Z,100116.44
2022-10-14T10:05:12.206Z,100107.72
2022-10-14T10:08:02.022Z,100108.56
2022-10-14T10:11:03.853Z,100104.34
2022-10-14T10:13:52.413Z,100105.81
2022-10-14T10:16:38.905Z,100107.00
2022-10-14T10:19:28.869Z,100106.28
2022-10-14T10:25:08.699Z,100102.41
2022-10-14T10:27:56.682Z,100102.59
2022-10-14T10:30:50.790Z,100096.97
2022-10-14T10:33:40.831Z,100097.44
2022-10-14T10:36:36.895Z,100090.12
2022-10-14T10:39:28.721Z,100085.69
2022-10-14T10:42:17.440Z,100086.16
2022-10-14T10:45:17.918Z,100074.44
2022-10-14T10:48:08.169Z,100069.56
2022-10-14T10:51:03.159Z,100074.81
2022-10-14T10:53:52.153Z,100075.44
2022-10-14T10:56:42.828Z,100077.72
2022-10-14T10:59:33.338Z,100071.00
2022-10-14T11:02:35.294Z,100070.09
2022-10-14T11:05:24.087Z,100069.50
2022-10-14T11:11:45.514Z,100062.09
2022-10-14T11:14:41.680Z,100065.00
2022-10-14T11:21:03.747Z,100057.72
2022-10-14T11:24:04.055Z,100051.44
2022-10-14T11:26:50.161Z,100049.53
2022-10-14T11:29:41.219Z,100048.53
2022-10-14T11:32:45.611Z,100042.78
2022-10-14T11:35:44.226Z,100045.53
2022-10-14T11:38:40.659Z,100038.59
2022-10-14T11:41:34.906Z,100042.44
2022-10-14T11:44:29.725Z,100035.53
2022-10-14T11:47:19.966Z,100035.88
2022-10-14T11:50:06.669Z,100029.97
2022-10-14T11:53:18.804Z,100025.41
2022-10-14T11:56:07.075Z,100024.66
2022-10-14T11:58:53.120Z,100020.09
2022-10-14T12:01:39.621Z,100027.16
2022-10-14T12:04:28.130Z,100025.03
2022-10-14T12:07:18.411Z,100019.50
2022-10-14T12:10:20.044Z,100012.63
2022-10-14T12:13:08.423Z,100017.56
2022-10-14T12:15:54.412Z,100018.41
2022-10-14T12:18:40.426Z,100018.94
2022-10-14T12:21:28.158Z,100018.78
2022-10-14T12:24:15.685Z,100016.03
2022-10-14T12:27:04.781Z,100000.47
2022-10-14T12:29:51.233Z,100007.47
2022-10-14T12:32:37.111Z,100000.16
2022-10-14T12:35:53.326Z,99994.22
2022-10-14T12:38:39.510Z,99995.31
2022-10-14T12:41:38.624Z,99986.53
2022-10-14T12:44:28.907Z,99986.28
2022-10-14T12:47:19.159Z,99983.47
2022-10-14T12:50:14.895Z,99977.59
2022-10-14T12:53:01.684Z,99982.53
2022-10-14T12:55:56.105Z,99982.53
2022-10-14T12:58:42.714Z,99980.19
2022-10-14T13:01:32.326Z,99976.66
2022-10-14T13:04:22.228Z,99975.72
2022-10-14T13:07:40.094Z,99976.72
2022-10-14T13:10:45.000Z,99978.75
2022-10-14T13:13:38.567Z,99980.00
2022-10-14T13:16:24.446Z,99982.50
2022-10-14T13:19:17.150Z,99972.19
2022-10-14T13:22:28.515Z,99968.25
2022-10-14T13:25:18.899Z,99970.34
2022-10-14T13:28:06.321Z,99969.94
2022-10-14T13:31:12.682Z,99970.75
2022-10-14T13:34:18.679Z,99961.72
2022-10-14T13:37:04.614Z,99960.12
2022-10-14T13:39:50.502Z,99961.34
2022-10-14T13:42:36.633Z,99958.50
2022-10-14T13:45:22.699Z,99960.47
2022-10-14T13:48:11.528Z,99965.66
2022-10-14T13:51:17.277Z,99956.88
2022-10-14T13:54:14.425Z,99954.47
2022-10-14T14:00:42.863Z,99950.00
2022-10-14T14:03:33.230Z,99941.59
2022-10-14T14:06:19.674Z,99944.22
2022-10-14T14:09:05.928Z,99941.69
2022-10-14T14:11:52.874Z,99944.38
2022-10-14T14:14:42.522Z,99938.78
2022-10-14T14:17:31.133Z,99935.28
2022-10-14T14:20:22.092Z,99934.22
2022-10-14T14:23:10.628Z,99929.91
2022-10-14T14:26:14.384Z,99932.41
2022-10-14T14:29:04.153Z,99930.63
2022-10-14T14:32:07.476Z,99935.31
2022-10-14T14:37:56.054Z,99929.09
2022-10-14T14:40:42.361Z,99936.38
2022-10-14T14:43:31.511Z,99930.38
2022-10-14T14:46:22.260Z,99937.00
2022-10-14T14:49:08.147Z,99935.19
2022-10-14T14:51:54.174Z,99934.28
2022-10-14T14:54:44.181Z,99928.47
2022-10-14T14:57:29.835Z,99938.25
2022-10-14T15:00:19.651Z,99927.63
2022-10-14T15:03:05.786Z,99923.31
2022-10-14T15:06:01.902Z,99927.72
2022-10-14T15:08:49.092Z,99922.13
2022-10-14T15:11:35.363Z,99912.41
2022-10-14T15:14:27.470Z,99922.97
2022-10-14T15:17:23.588Z,99914.12
2022-10-14T15:20:28.904Z,99920.41
2022-10-14T15:23:34.198Z,99921.88
2022-10-14T15:26:33.760Z,99918.81
2022-10-14T15:32:11.893Z,99931.03
2022-10-14T15:35:01.006Z,99932.97
2022-10-14T15:37:47.001Z,99932.81
2022-10-14T15:40:33.192Z,99932.25
2022-10-14T15:43:20.363Z,99932.87
2022-10-14T15:46:24.909Z,99931.00
2022-10-14T15:49:14.104Z,99929.25
2022-10-14T15:52:00.085Z,99935.31
2022-10-14T15:54:45.980Z,99936.50
2022-10-14T15:57:33.265Z,99937.22
2022-10-14T16:00:23.249Z,99938.88
2022-10-14T16:03:09.425Z,99947.19
2022-10-14T16:05:55.314Z,99942.06
2022-10-14T16:08:42.894Z,99949.22
2022-10-14T16:11:29.978Z,99943.84
2022-10-14T16:14:16.521Z,99960.53
2022-10-14T16:17:03.067Z,99953.94
2022-10-14T16:19:49.380Z,99964.47
2022-10-14T16:22:35.448Z,99964.56
2022-10-14T16:25:50.716Z,99960.66
2022-10-14T16:28:36.654Z,99963.25
2022-10-14T16:31:22.946Z,99965.69
2022-10-14T16:34:11.510Z,99973.75
2022-10-14T16:36:57.902Z,99971.34
2022-10-14T16:39:43.883Z,99974.47
2022-10-14T16:42:31.026Z,99972.88
2022-10-14T16:45:16.636Z,99981.44
2022-10-14T16:48:02.903Z,99975.19
2022-10-14T16:50:52.292Z,99985.22
2022-10-14T16:53:41.310Z,99988.38
2022-10-14T16:56:45.912Z,99987.91
2022-10-14T16:59:32.094Z,99977.75
2022-10-14T17:02:17.999Z,99984.69
2022-10-14T17:05:04.126Z,99984.25
2022-10-14T17:07:49.763Z,99980.72
2022-10-14T17:10:35.721Z,99977.09
2022-10-14T17:13:21.593Z,99974.97
2022-10-14T17:16:07.916Z,99980.00
2022-10-14T17:18:54.133Z,99982.25
2022-10-14T17:21:40.390Z,99982.72
2022-10-14T17:24:26.215Z,99979.84
2022-10-14T17:27:12.418Z,99986.22
2022-10-14T17:29:58.655Z,99984.97
2022-10-14T17:32:44.606Z,99982.06
2022-10-14T17:35:30.471Z,99988.97
2022-10-14T17:38:17.857Z,99989.34
2022-10-14T17:41:04.335Z,99977.91
2022-10-14T17:43:54.627Z,99984.06
2022-10-14T17:46:40.646Z,99984.25
2022-10-14T17:49:26.935Z,99978.06
2022-10-14T17:52:12.822Z,99988.69
2022-10-14T17:55:01.416Z,99989.09
2022-10-14T17:57:47.788Z,99992.47
2022-10-14T18:00:33.929Z,99992.84
2022-10-14T18:03:20.286Z,99996.78
2022-10-14T18:06:10.213Z,99998.56
2022-10-14T18:09:01.149Z,99995.19
2022-10-14T18:14:53.458Z,99991.16
2022-10-14T18:17:39.507Z,99992.13
2022-10-14T18:20:25.964Z,99986.41
2022-10-14T18:23:12.568Z,99994.59
2022-10-14T18:26:06.273Z,99990.34
2022-10-14T18:28:55.773Z,99991.34
2022-10-14T18:31:42.324Z,99993.06
2022-10-14T18:34:28.519Z,99997.28
2022-10-14T18:37:14.465Z,99995.63
2022-10-14T18:40:00.357Z,99992.06
2022-10-14T18:42:46.278Z,99998.38
2022-10-14T18:45:34.202Z,100000.78
2022-10-14T18:48:22.070Z,100008.22
2022-10-14T18:51:08.857Z,99994.53
2022-10-14T18:53:57.192Z,99997.78
2022-10-14T18:56:44.447Z,99999.81
2022-10-14T18:59:30.916Z,99998.53
2022-10-14T19:02:16.977Z,100001.75
2022-10-14T19:05:03.373Z,100004.25
2022-10-14T19:07:49.251Z,100010.19
2022-10-14T19:10:35.665Z,100008.47
2022-10-14T19:13:21.507Z,100005.75
2022-10-14T19:16:09.068Z,100005.19
2022-10-14T19:18:55.215Z,100008.56
2022-10-14T19:21:41.415Z,100009.91
2022-10-14T19:24:27.294Z,100010.34
2022-10-14T19:27:13.226Z,100012.00
2022-10-14T19:29:59.069Z,100011.38
2022-10-14T19:32:45.289Z,100020.22
2022-10-14T19:35:31.176Z,100024.25
2022-10-14T19:38:17.234Z,100021.69
2022-10-14T19:41:04.338Z,100029.94
2022-10-14T19:43:50.552Z,100025.56
2022-10-14T19:46:36.238Z,100027.81
2022-10-14T19:49:22.634Z,100028.47
2022-10-14T19:52:08.639Z,100027.97
2022-10-14T19:54:54.458Z,100023.28
2022-10-14T19:57:40.306Z,100026.81
2022-10-14T20:00:26.629Z,100028.09
2022-10-14T20:03:12.991Z,100024.09
2022-10-14T20:06:02.184Z,100029.44
2022-10-14T20:08:41.218Z,100028.44
2022-10-14T20:11:22.535Z,100026.34
2022-10-14T20:14:01.865Z,100032.03
2022-10-14T20:16:52.181Z,100027.09
2022-10-14T20:19:33.896Z,100029.75
2022-10-14T20:22:13.753Z,100016.63
2022-10-14T20:24:58.522Z,100020.06
2022-10-14T20:27:53.101Z,100022.31
2022-10-14T20:30:33.796Z,100019.72
2022-10-14T20:33:15.431Z,100016.78
2022-10-14T20:36:05.090Z,100023.28
2022-10-14T20:38:53.328Z,100019.69
2022-10-14T20:41:34.495Z,100013.81
2022-10-14T20:44:28.544Z,100013.81
2022-10-14T20:47:07.166Z,100023.87
2022-10-14T20:49:46.460Z,100024.91
2022-10-14T20:52:24.801Z,100019.50
2022-10-14T20:55:04.185Z,100012.59
2022-10-14T20:57:44.006Z,100019.34
2022-10-14T21:00:23.004Z,100021.78
2022-10-14T21:03:01.526Z,100018.56
2022-10-14T21:05:55.303Z,100018.56
2022-10-14T21:08:38.653Z,100024.38
2022-10-14T21:11:19.393Z,100021.00
2022-10-14T21:13:59.667Z,100015.50
2022-10-14T21:16:42.242Z,100020.97
2022-10-14T21:19:23.840Z,100006.72
2022-10-14T21:22:03.686Z,100010.16
2022-10-14T21:24:43.345Z,100013.06
2022-10-14T21:27:21.266Z,100017.72
2022-10-14T21:29:59.500Z,100011.06
2022-10-14T21:32:38.100Z,100018.66
2022-10-14T21:35:15.241Z,100013.41
2022-10-14T21:37:54.689Z,100015.00
2022-10-14T21:40:32.995Z,100016.31
2022-10-14T21:43:11.157Z,100010.13
2022-10-14T21:45:49.970Z,100003.53
2022-10-14T21:48:28.486Z,99998.97
2022-10-14T21:51:15.234Z,100005.16
2022-10-14T21:53:55.169Z,100003.34
2022-10-14T21:56:33.898Z,100005.72
2022-10-14T21:59:12.150Z,99995.19
2022-10-14T22:01:50.743Z,99995.59
2022-10-14T22:04:28.138Z,99991.09
2022-10-14T22:07:07.105Z,99988.53
2022-10-14T22:09:45.713Z,99991.47
2022-10-14T22:12:38.790Z,99991.47
2022-10-14T22:15:16.685Z,99983.81
2022-10-14T22:18:02.135Z,99988.84
2022-10-14T22:20:41.928Z,99991.81
2022-10-14T22:23:19.101Z,99989.28
2022-10-14T22:26:02.128Z,99992.13
2022-10-14T22:28:41.691Z,99990.72
2022-10-14T22:31:20.970Z,100000.91
2022-10-14T22:33:59.012Z,99995.06
2022-10-14T22:36:37.934Z,100004.69
2022-10-14T22:39:16.544Z,100002.09
2022-10-14T22:41:54.654Z,100002.03
2022-10-14T22:44:33.153Z,99996.41
2022-10-14T22:47:10.400Z,99997.75
2022-10-14T22:49:49.139Z,99998.56
2022-10-14T22:52:28.096Z,99985.59
2022-10-14T22:55:06.624Z,99985.97
2022-10-14T22:57:46.847Z,99990.50
2022-10-14T23:00:31.973Z,99995.25
2022-10-14T23:03:14.060Z,99991.31
2022-10-14T23:05:52.205Z,99990.28
2022-10-14T23:08:32.852Z,99992.78
2022-10-14T23:11:18.456Z,99985.44
2022-10-14T23:13:56.207Z,100000.81
2022-10-14T23:16:36.188Z,99991.81
2022-10-14T23:19:13.511Z,99990.78
2022-10-14T23:21:50.520Z,99988.97
2022-10-14T23:24:27.601Z,99985.78
2022-10-14T23:27:04.937Z,99986.44
2022-10-14T23:29:43.354Z,99983.34
2022-10-14T23:32:22.309Z,99992.19
2022-10-14T23:35:01.003Z,99998.47
2022-10-14T23:37:39.424Z,100001.00
2022-10-14T23:40:16.401Z,99990.19
2022-10-14T23:42:54.918Z,99987.19
2022-10-14T23:45:32.620Z,99991.59
2022-10-14T23:48:11.170Z,100003.97
2022-10-14T23:50:49.528Z,100001.78
2022-10-14T23:53:28.608Z,99995.59
2022-10-14T23:56:07.079Z,99994.34
2022-10-14T23:58:45.547Z,99997.72
